Ashland, Massachusetts
Current Conditions -  °F | °C
As of 6:53 AM on Saturday 20 Dec 2014 (Local Time) from KOWD Reporting Station
Broken Clouds Broken Clouds  
Wind Chill: 22°   Ceiling: 3500
Heat Index: 22°   Visibility: 10mi
Dew Point: 20°   Wind: 0mph
Humidity: 92%   Direction: NA
Pressure: 30.25"   Gusts: NA
Location:  42.26°N, 71.46°W
Report Text: KOWD 201153Z AUTO 00000KT 10SM BKN035 M06/M07 A3025 RMK AO2 SLP244 I1000 I6000 T10561067 11028 21056 53020
Loading
Personal Weather Stations






























Interactive Weather Map New forecast layout! Learn more

10-Day Weather Forecast

Advertisements
Track Severe Weather on mobile